sensor_id;sensor_type;location;lat;lon;timestamp;P1;durP1;ratioP1;P2;durP2;ratioP2
71290;SDS011;59073;51.994;4.448;2023-02-02T00:01:10;5.79;;;3.87;;
71290;SDS011;59073;51.994;4.448;2023-02-02T00:03:36;5.02;;;3.37;;
71290;SDS011;59073;51.994;4.448;2023-02-02T00:06:02;6.48;;;4.31;;
71290;SDS011;59073;51.994;4.448;2023-02-02T00:08:28;6.01;;;3.99;;
71290;SDS011;59073;51.994;4.448;2023-02-02T00:10:54;6.33;;;4.22;;
71290;SDS011;59073;51.994;4.448;2023-02-02T00:13:20;4.83;;;3.26;;
71290;SDS011;59073;51.994;4.448;2023-02-02T00:15:45;6.04;;;4.02;;
71290;SDS011;59073;51.994;4.448;2023-02-02T00:18:10;5.52;;;3.65;;
71290;SDS011;59073;51.994;4.448;2023-02-02T00:20:36;5.81;;;3.88;;
71290;SDS011;59073;51.994;4.448;2023-02-02T00:23:01;5.89;;;3.98;;
71290;SDS011;59073;51.994;4.448;2023-02-02T00:25:28;6.57;;;4.29;;
71290;SDS011;59073;51.994;4.448;2023-02-02T00:27:54;5.92;;;3.86;;
71290;SDS011;59073;51.994;4.448;2023-02-02T00:30:20;6.29;;;4.06;;
71290;SDS011;59073;51.994;4.448;2023-02-02T00:32:46;5.37;;;3.53;;
71290;SDS011;59073;51.994;4.448;2023-02-02T00:35:13;6.43;;;4.27;;
71290;SDS011;59073;51.994;4.448;2023-02-02T00:37:39;6.18;;;4.07;;
71290;SDS011;59073;51.994;4.448;2023-02-02T00:40:06;6.53;;;4.28;;
71290;SDS011;59073;51.994;4.448;2023-02-02T00:42:32;5.24;;;3.42;;
71290;SDS011;59073;51.994;4.448;2023-02-02T00:44:57;5.70;;;3.86;;
71290;SDS011;59073;51.994;4.448;2023-02-02T00:47:42;5.80;;;3.92;;
71290;SDS011;59073;51.994;4.448;2023-02-02T00:50:13;6.86;;;4.53;;
71290;SDS011;59073;51.994;4.448;2023-02-02T00:52:41;7.03;;;4.64;;
71290;SDS011;59073;51.994;4.448;2023-02-02T00:55:07;6.12;;;4.02;;
71290;SDS011;59073;51.994;4.448;2023-02-02T00:57:33;5.97;;;3.90;;
71290;SDS011;59073;51.994;4.448;2023-02-02T00:59:59;7.06;;;4.58;;
71290;SDS011;59073;51.994;4.448;2023-02-02T01:02:24;6.67;;;4.29;;
71290;SDS011;59073;51.994;4.448;2023-02-02T01:04:50;5.87;;;3.91;;
71290;SDS011;59073;51.994;4.448;2023-02-02T01:07:16;6.60;;;4.30;;
71290;SDS011;59073;51.994;4.448;2023-02-02T01:09:41;6.16;;;4.06;;
71290;SDS011;59073;51.994;4.448;2023-02-02T01:12:07;5.54;;;3.58;;
71290;SDS011;59073;51.994;4.448;2023-02-02T01:14:32;6.95;;;4.50;;
71290;SDS011;59073;51.994;4.448;2023-02-02T01:16:58;6.48;;;4.23;;
71290;SDS011;59073;51.994;4.448;2023-02-02T01:19:24;6.36;;;4.14;;
71290;SDS011;59073;51.994;4.448;2023-02-02T01:21:50;6.46;;;4.22;;
71290;SDS011;59073;51.994;4.448;2023-02-02T01:24:16;6.55;;;4.24;;
71290;SDS011;59073;51.994;4.448;2023-02-02T01:26:41;5.51;;;3.67;;
71290;SDS011;59073;51.994;4.448;2023-02-02T01:29:07;5.98;;;4.04;;
71290;SDS011;59073;51.994;4.448;2023-02-02T01:31:32;5.81;;;3.87;;
71290;SDS011;59073;51.994;4.448;2023-02-02T01:33:58;5.79;;;3.89;;
71290;SDS011;59073;51.994;4.448;2023-02-02T01:36:24;6.14;;;4.18;;
71290;SDS011;59073;51.994;4.448;2023-02-02T01:38:49;5.40;;;3.63;;
71290;SDS011;59073;51.994;4.448;2023-02-02T01:41:19;5.21;;;3.48;;
71290;SDS011;59073;51.994;4.448;2023-02-02T01:46:17;6.31;;;4.26;;
71290;SDS011;59073;51.994;4.448;2023-02-02T01:48:52;7.24;;;4.70;;
71290;SDS011;59073;51.994;4.448;2023-02-02T01:51:25;6.42;;;4.17;;
71290;SDS011;59073;51.994;4.448;2023-02-02T01:54:00;5.96;;;3.88;;
71290;SDS011;59073;51.994;4.448;2023-02-02T01:56:34;6.19;;;4.09;;
71290;SDS011;59073;51.994;4.448;2023-02-02T01:59:07;6.43;;;4.28;;
71290;SDS011;59073;51.994;4.448;2023-02-02T02:01:36;6.46;;;4.23;;
71290;SDS011;59073;51.994;4.448;2023-02-02T02:04:02;6.75;;;4.45;;
71290;SDS011;59073;51.994;4.448;2023-02-02T02:06:27;5.86;;;3.87;;
71290;SDS011;59073;51.994;4.448;2023-02-02T02:08:54;6.22;;;4.14;;
71290;SDS011;59073;51.994;4.448;2023-02-02T02:11:22;6.82;;;4.53;;
71290;SDS011;59073;51.994;4.448;2023-02-02T02:13:49;6.93;;;4.52;;
71290;SDS011;59073;51.994;4.448;2023-02-02T02:17:00;6.86;;;4.43;;
71290;SDS011;59073;51.994;4.448;2023-02-02T02:22:21;6.91;;;4.35;;
71290;SDS011;59073;51.994;4.448;2023-02-02T02:25:27;6.57;;;4.29;;
71290;SDS011;59073;51.994;4.448;2023-02-02T02:34:40;6.03;;;3.94;;
71290;SDS011;59073;51.994;4.448;2023-02-02T02:37:28;5.95;;;4.00;;
71290;SDS011;59073;51.994;4.448;2023-02-02T02:40:06;5.39;;;3.72;;
71290;SDS011;59073;51.994;4.448;2023-02-02T02:42:54;5.17;;;3.60;;
71290;SDS011;59073;51.994;4.448;2023-02-02T02:45:25;5.44;;;3.77;;
71290;SDS011;59073;51.994;4.448;2023-02-02T02:47:52;5.76;;;3.89;;
71290;SDS011;59073;51.994;4.448;2023-02-02T02:50:19;4.72;;;3.25;;
71290;SDS011;59073;51.994;4.448;2023-02-02T02:52:45;6.17;;;4.12;;
71290;SDS011;59073;51.994;4.448;2023-02-02T02:55:16;6.22;;;4.12;;
71290;SDS011;59073;51.994;4.448;2023-02-02T03:00:37;6.57;;;4.20;;
71290;SDS011;59073;51.994;4.448;2023-02-02T03:06:35;6.56;;;4.27;;
71290;SDS011;59073;51.994;4.448;2023-02-02T03:09:12;5.78;;;3.84;;
71290;SDS011;59073;51.994;4.448;2023-02-02T03:11:45;5.36;;;3.56;;
71290;SDS011;59073;51.994;4.448;2023-02-02T03:14:10;5.19;;;3.45;;
71290;SDS011;59073;51.994;4.448;2023-02-02T03:16:36;5.78;;;3.84;;
71290;SDS011;59073;51.994;4.448;2023-02-02T03:19:02;5.96;;;3.89;;
71290;SDS011;59073;51.994;4.448;2023-02-02T03:21:29;6.07;;;3.90;;
71290;SDS011;59073;51.994;4.448;2023-02-02T03:23:55;5.11;;;3.30;;
71290;SDS011;59073;51.994;4.448;2023-02-02T03:26:20;5.39;;;3.47;;
71290;SDS011;59073;51.994;4.448;2023-02-02T03:28:46;5.73;;;3.75;;
71290;SDS011;59073;51.994;4.448;2023-02-02T03:31:13;4.90;;;3.25;;
71290;SDS011;59073;51.994;4.448;2023-02-02T03:33:39;5.34;;;3.52;;
71290;SDS011;59073;51.994;4.448;2023-02-02T03:36:05;5.30;;;3.54;;
71290;SDS011;59073;51.994;4.448;2023-02-02T03:38:31;5.28;;;3.51;;
71290;SDS011;59073;51.994;4.448;2023-02-02T03:40:56;5.11;;;3.40;;
71290;SDS011;59073;51.994;4.448;2023-02-02T03:43:22;5.21;;;3.49;;
71290;SDS011;59073;51.994;4.448;2023-02-02T03:45:54;5.22;;;3.43;;
71290;SDS011;59073;51.994;4.448;2023-02-02T03:48:20;5.48;;;3.54;;
71290;SDS011;59073;51.994;4.448;2023-02-02T03:50:45;7.56;;;4.70;;
71290;SDS011;59073;51.994;4.448;2023-02-02T03:53:11;7.51;;;4.69;;
71290;SDS011;59073;51.994;4.448;2023-02-02T03:55:36;6.81;;;4.33;;
71290;SDS011;59073;51.994;4.448;2023-02-02T03:58:04;7.24;;;4.66;;
71290;SDS011;59073;51.994;4.448;2023-02-02T04:00:30;6.67;;;4.29;;
71290;SDS011;59073;51.994;4.448;2023-02-02T04:02:55;6.64;;;4.26;;
71290;SDS011;59073;51.994;4.448;2023-02-02T04:05:20;6.19;;;3.93;;
71290;SDS011;59073;51.994;4.448;2023-02-02T04:07:46;6.70;;;4.31;;
71290;SDS011;59073;51.994;4.448;2023-02-02T04:10:13;5.83;;;3.85;;
71290;SDS011;59073;51.994;4.448;2023-02-02T04:12:38;5.49;;;3.63;;
71290;SDS011;59073;51.994;4.448;2023-02-02T04:15:04;6.07;;;3.97;;
71290;SDS011;59073;51.994;4.448;2023-02-02T04:17:30;6.96;;;4.54;;
71290;SDS011;59073;51.994;4.448;2023-02-02T04:19:55;5.65;;;3.65;;
71290;SDS011;59073;51.994;4.448;2023-02-02T04:22:23;5.42;;;3.49;;
71290;SDS011;59073;51.994;4.448;2023-02-02T04:24:49;6.01;;;3.87;;
71290;SDS011;59073;51.994;4.448;2023-02-02T04:27:15;5.42;;;3.52;;
71290;SDS011;59073;51.994;4.448;2023-02-02T04:29:40;5.69;;;3.73;;
71290;SDS011;59073;51.994;4.448;2023-02-02T04:32:06;5.22;;;3.49;;
71290;SDS011;59073;51.994;4.448;2023-02-02T04:34:31;5.42;;;3.54;;
71290;SDS011;59073;51.994;4.448;2023-02-02T04:36:56;6.26;;;4.01;;
71290;SDS011;59073;51.994;4.448;2023-02-02T04:39:22;5.68;;;3.58;;
71290;SDS011;59073;51.994;4.448;2023-02-02T04:41:48;5.70;;;3.63;;
71290;SDS011;59073;51.994;4.448;2023-02-02T04:44:14;6.03;;;3.88;;
71290;SDS011;59073;51.994;4.448;2023-02-02T04:46:43;5.40;;;3.50;;
71290;SDS011;59073;51.994;4.448;2023-02-02T04:49:09;5.96;;;3.81;;
71290;SDS011;59073;51.994;4.448;2023-02-02T04:51:38;6.22;;;4.03;;
71290;SDS011;59073;51.994;4.448;2023-02-02T04:54:05;5.14;;;3.37;;
71290;SDS011;59073;51.994;4.448;2023-02-02T04:56:31;4.76;;;3.20;;
71290;SDS011;59073;51.994;4.448;2023-02-02T04:58:56;4.57;;;3.07;;
71290;SDS011;59073;51.994;4.448;2023-02-02T05:01:22;4.27;;;2.89;;
71290;SDS011;59073;51.994;4.448;2023-02-02T05:03:48;5.34;;;3.58;;
71290;SDS011;59073;51.994;4.448;2023-02-02T05:06:15;4.84;;;3.24;;
71290;SDS011;59073;51.994;4.448;2023-02-02T05:08:43;5.54;;;3.63;;
71290;SDS011;59073;51.994;4.448;2023-02-02T05:11:10;5.03;;;3.25;;
71290;SDS011;59073;51.994;4.448;2023-02-02T05:13:38;5.65;;;3.65;;
71290;SDS011;59073;51.994;4.448;2023-02-02T05:16:04;5.17;;;3.32;;
71290;SDS011;59073;51.994;4.448;2023-02-02T05:18:29;5.14;;;3.40;;
71290;SDS011;59073;51.994;4.448;2023-02-02T05:20:58;5.49;;;3.62;;
71290;SDS011;59073;51.994;4.448;2023-02-02T05:23:25;5.30;;;3.50;;
71290;SDS011;59073;51.994;4.448;2023-02-02T05:25:51;5.63;;;3.77;;
71290;SDS011;59073;51.994;4.448;2023-02-02T05:28:17;5.62;;;3.75;;
71290;SDS011;59073;51.994;4.448;2023-02-02T05:30:43;5.91;;;3.94;;
71290;SDS011;59073;51.994;4.448;2023-02-02T05:33:09;5.02;;;3.40;;
71290;SDS011;59073;51.994;4.448;2023-02-02T05:35:35;5.45;;;3.77;;
71290;SDS011;59073;51.994;4.448;2023-02-02T05:38:00;5.36;;;3.69;;
71290;SDS011;59073;51.994;4.448;2023-02-02T05:40:26;4.54;;;3.11;;
71290;SDS011;59073;51.994;4.448;2023-02-02T05:42:52;4.93;;;3.38;;
71290;SDS011;59073;51.994;4.448;2023-02-02T05:45:17;4.71;;;3.25;;
71290;SDS011;59073;51.994;4.448;2023-02-02T05:47:42;4.52;;;3.10;;
71290;SDS011;59073;51.994;4.448;2023-02-02T05:50:08;4.92;;;3.36;;
71290;SDS011;59073;51.994;4.448;2023-02-02T05:52:34;4.35;;;3.02;;
71290;SDS011;59073;51.994;4.448;2023-02-02T05:55:02;4.62;;;3.21;;
71290;SDS011;59073;51.994;4.448;2023-02-02T05:57:28;4.72;;;3.28;;
71290;SDS011;59073;51.994;4.448;2023-02-02T05:59:54;5.33;;;3.68;;
71290;SDS011;59073;51.994;4.448;2023-02-02T06:02:19;4.55;;;3.09;;
71290;SDS011;59073;51.994;4.448;2023-02-02T06:04:45;5.52;;;3.80;;
71290;SDS011;59073;51.994;4.448;2023-02-02T06:07:10;5.12;;;3.59;;
71290;SDS011;59073;51.994;4.448;2023-02-02T06:09:36;4.96;;;3.52;;
71290;SDS011;59073;51.994;4.448;2023-02-02T06:12:02;4.64;;;3.23;;
71290;SDS011;59073;51.994;4.448;2023-02-02T06:14:27;4.56;;;3.15;;
71290;SDS011;59073;51.994;4.448;2023-02-02T06:16:53;4.16;;;2.89;;
71290;SDS011;59073;51.994;4.448;2023-02-02T06:19:18;4.54;;;3.15;;
71290;SDS011;59073;51.994;4.448;2023-02-02T06:21:44;4.74;;;3.32;;
71290;SDS011;59073;51.994;4.448;2023-02-02T06:24:09;4.98;;;3.54;;
71290;SDS011;59073;51.994;4.448;2023-02-02T06:26:35;4.34;;;3.08;;
71290;SDS011;59073;51.994;4.448;2023-02-02T06:29:00;4.66;;;3.26;;
71290;SDS011;59073;51.994;4.448;2023-02-02T06:31:26;3.93;;;2.85;;
71290;SDS011;59073;51.994;4.448;2023-02-02T06:33:52;4.74;;;3.41;;
71290;SDS011;59073;51.994;4.448;2023-02-02T06:36:19;4.16;;;2.95;;
71290;SDS011;59073;51.994;4.448;2023-02-02T06:38:49;4.14;;;2.92;;
71290;SDS011;59073;51.994;4.448;2023-02-02T06:41:16;5.20;;;3.66;;
71290;SDS011;59073;51.994;4.448;2023-02-02T06:43:42;4.44;;;3.07;;
71290;SDS011;59073;51.994;4.448;2023-02-02T06:46:08;4.91;;;3.29;;
71290;SDS011;59073;51.994;4.448;2023-02-02T06:48:33;6.14;;;4.08;;
71290;SDS011;59073;51.994;4.448;2023-02-02T06:50:59;4.86;;;3.27;;
71290;SDS011;59073;51.994;4.448;2023-02-02T06:53:25;3.86;;;2.64;;
71290;SDS011;59073;51.994;4.448;2023-02-02T06:55:52;4.64;;;3.15;;
71290;SDS011;59073;51.994;4.448;2023-02-02T06:58:18;4.17;;;2.85;;
71290;SDS011;59073;51.994;4.448;2023-02-02T07:00:44;5.00;;;3.41;;
71290;SDS011;59073;51.994;4.448;2023-02-02T07:03:09;4.44;;;3.05;;
71290;SDS011;59073;51.994;4.448;2023-02-02T07:05:35;4.66;;;3.16;;
71290;SDS011;59073;51.994;4.448;2023-02-02T07:08:00;4.64;;;3.22;;
71290;SDS011;59073;51.994;4.448;2023-02-02T07:10:26;4.78;;;3.26;;
71290;SDS011;59073;51.994;4.448;2023-02-02T07:12:52;4.05;;;2.81;;
71290;SDS011;59073;51.994;4.448;2023-02-02T07:15:18;4.52;;;3.18;;
71290;SDS011;59073;51.994;4.448;2023-02-02T07:17:43;3.81;;;2.66;;
71290;SDS011;59073;51.994;4.448;2023-02-02T07:20:09;5.13;;;3.51;;
71290;SDS011;59073;51.994;4.448;2023-02-02T07:22:37;4.38;;;2.95;;
71290;SDS011;59073;51.994;4.448;2023-02-02T07:25:03;4.62;;;3.15;;
71290;SDS011;59073;51.994;4.448;2023-02-02T07:27:29;4.95;;;3.34;;
71290;SDS011;59073;51.994;4.448;2023-02-02T07:29:54;5.06;;;3.38;;
71290;SDS011;59073;51.994;4.448;2023-02-02T07:32:19;4.78;;;3.23;;
71290;SDS011;59073;51.994;4.448;2023-02-02T07:34:45;4.36;;;2.95;;
71290;SDS011;59073;51.994;4.448;2023-02-02T07:37:10;5.41;;;3.67;;
71290;SDS011;59073;51.994;4.448;2023-02-02T07:39:36;5.23;;;3.54;;
71290;SDS011;59073;51.994;4.448;2023-02-02T07:42:01;4.66;;;3.14;;
71290;SDS011;59073;51.994;4.448;2023-02-02T07:44:28;4.08;;;2.76;;
71290;SDS011;59073;51.994;4.448;2023-02-02T07:46:53;4.75;;;3.16;;
71290;SDS011;59073;51.994;4.448;2023-02-02T07:49:18;5.28;;;3.55;;
71290;SDS011;59073;51.994;4.448;2023-02-02T07:51:44;4.24;;;2.82;;
71290;SDS011;59073;51.994;4.448;2023-02-02T07:54:12;5.46;;;3.60;;
71290;SDS011;59073;51.994;4.448;2023-02-02T07:56:37;6.44;;;4.19;;
71290;SDS011;59073;51.994;4.448;2023-02-02T07:59:03;4.61;;;3.06;;
71290;SDS011;59073;51.994;4.448;2023-02-02T08:01:29;5.43;;;3.58;;
71290;SDS011;59073;51.994;4.448;2023-02-02T08:03:56;5.59;;;3.60;;
71290;SDS011;59073;51.994;4.448;2023-02-02T08:08:52;5.38;;;3.50;;
71290;SDS011;59073;51.994;4.448;2023-02-02T08:11:18;5.28;;;3.40;;
71290;SDS011;59073;51.994;4.448;2023-02-02T08:13:49;4.79;;;3.13;;
71290;SDS011;59073;51.994;4.448;2023-02-02T08:16:17;5.50;;;3.58;;
71290;SDS011;59073;51.994;4.448;2023-02-02T08:18:44;5.15;;;3.34;;
71290;SDS011;59073;51.994;4.448;2023-02-02T08:21:10;5.52;;;3.49;;
71290;SDS011;59073;51.994;4.448;2023-02-02T08:23:36;5.71;;;3.60;;
71290;SDS011;59073;51.994;4.448;2023-02-02T08:28:33;5.77;;;3.70;;
71290;SDS011;59073;51.994;4.448;2023-02-02T08:31:07;6.12;;;3.87;;
71290;SDS011;59073;51.994;4.448;2023-02-02T08:33:45;5.84;;;3.65;;
71290;SDS011;59073;51.994;4.448;2023-02-02T08:36:15;6.59;;;4.07;;
71290;SDS011;59073;51.994;4.448;2023-02-02T08:38:43;5.27;;;3.29;;
71290;SDS011;59073;51.994;4.448;2023-02-02T08:41:10;5.03;;;3.17;;
71290;SDS011;59073;51.994;4.448;2023-02-02T08:43:38;5.62;;;3.61;;
71290;SDS011;59073;51.994;4.448;2023-02-02T08:46:05;5.51;;;3.61;;
71290;SDS011;59073;51.994;4.448;2023-02-02T08:48:32;5.24;;;3.38;;
71290;SDS011;59073;51.994;4.448;2023-02-02T08:50:59;4.72;;;3.03;;
71290;SDS011;59073;51.994;4.448;2023-02-02T08:53:25;5.21;;;3.29;;
71290;SDS011;59073;51.994;4.448;2023-02-02T08:55:59;6.09;;;3.83;;
71290;SDS011;59073;51.994;4.448;2023-02-02T08:58:28;4.98;;;3.11;;
71290;SDS011;59073;51.994;4.448;2023-02-02T09:01:02;6.39;;;4.04;;
71290;SDS011;59073;51.994;4.448;2023-02-02T09:03:48;5.64;;;3.56;;
71290;SDS011;59073;51.994;4.448;2023-02-02T09:06:17;6.24;;;3.87;;
71290;SDS011;59073;51.994;4.448;2023-02-02T09:08:44;5.75;;;3.57;;
71290;SDS011;59073;51.994;4.448;2023-02-02T09:11:13;4.64;;;2.92;;
71290;SDS011;59073;51.994;4.448;2023-02-02T09:13:47;5.42;;;3.43;;
71290;SDS011;59073;51.994;4.448;2023-02-02T09:16:20;5.26;;;3.32;;
71290;SDS011;59073;51.994;4.448;2023-02-02T09:18:46;5.36;;;3.40;;
71290;SDS011;59073;51.994;4.448;2023-02-02T09:21:12;5.28;;;3.36;;
71290;SDS011;59073;51.994;4.448;2023-02-02T09:23:41;5.35;;;3.44;;
71290;SDS011;59073;51.994;4.448;2023-02-02T09:26:17;5.83;;;3.71;;
71290;SDS011;59073;51.994;4.448;2023-02-02T09:28:58;6.14;;;3.94;;
71290;SDS011;59073;51.994;4.448;2023-02-02T09:31:27;4.77;;;3.07;;
71290;SDS011;59073;51.994;4.448;2023-02-02T09:33:53;5.74;;;3.69;;
71290;SDS011;59073;51.994;4.448;2023-02-02T09:36:20;5.14;;;3.29;;
71290;SDS011;59073;51.994;4.448;2023-02-02T09:38:47;5.54;;;3.56;;
71290;SDS011;59073;51.994;4.448;2023-02-02T09:47:17;4.50;;;2.90;;
71290;SDS011;59073;51.994;4.448;2023-02-02T09:49:50;5.42;;;3.40;;
71290;SDS011;59073;51.994;4.448;2023-02-02T09:52:29;5.05;;;3.19;;
71290;SDS011;59073;51.994;4.448;2023-02-02T09:55:15;4.71;;;2.97;;
71290;SDS011;59073;51.994;4.448;2023-02-02T10:00:44;5.11;;;3.18;;
71290;SDS011;59073;51.994;4.448;2023-02-02T10:03:20;4.78;;;2.98;;
71290;SDS011;59073;51.994;4.448;2023-02-02T10:06:01;4.94;;;3.11;;
71290;SDS011;59073;51.994;4.448;2023-02-02T10:08:49;4.59;;;2.90;;
71290;SDS011;59073;51.994;4.448;2023-02-02T10:11:26;4.33;;;2.73;;
71290;SDS011;59073;51.994;4.448;2023-02-02T10:14:00;4.01;;;2.57;;
71290;SDS011;59073;51.994;4.448;2023-02-02T10:16:30;3.96;;;2.53;;
71290;SDS011;59073;51.994;4.448;2023-02-02T10:19:09;4.48;;;2.86;;
71290;SDS011;59073;51.994;4.448;2023-02-02T10:21:40;4.70;;;3.01;;
71290;SDS011;59073;51.994;4.448;2023-02-02T10:24:44;4.64;;;2.97;;
71290;SDS011;59073;51.994;4.448;2023-02-02T10:27:13;5.00;;;3.19;;
71290;SDS011;59073;51.994;4.448;2023-02-02T10:29:52;3.67;;;2.36;;
71290;SDS011;59073;51.994;4.448;2023-02-02T10:32:25;4.95;;;3.25;;
71290;SDS011;59073;51.994;4.448;2023-02-02T10:34:59;4.09;;;2.68;;
71290;SDS011;59073;51.994;4.448;2023-02-02T10:38:01;4.84;;;3.10;;
71290;SDS011;59073;51.994;4.448;2023-02-02T10:48:50;5.37;;;3.41;;
71290;SDS011;59073;51.994;4.448;2023-02-02T10:51:32;4.22;;;2.68;;
71290;SDS011;59073;51.994;4.448;2023-02-02T10:53:59;4.11;;;2.60;;
71290;SDS011;59073;51.994;4.448;2023-02-02T10:56:36;5.22;;;3.30;;
71290;SDS011;59073;51.994;4.448;2023-02-02T10:59:14;4.75;;;2.99;;
71290;SDS011;59073;51.994;4.448;2023-02-02T11:01:48;5.20;;;3.27;;
71290;SDS011;59073;51.994;4.448;2023-02-02T11:04:14;5.01;;;3.16;;
71290;SDS011;59073;51.994;4.448;2023-02-02T11:07:05;4.71;;;3.01;;
71290;SDS011;59073;51.994;4.448;2023-02-02T11:09:31;4.47;;;2.90;;
71290;SDS011;59073;51.994;4.448;2023-02-02T11:12:04;4.48;;;2.93;;
71290;SDS011;59073;51.994;4.448;2023-02-02T11:14:44;4.23;;;2.81;;
71290;SDS011;59073;51.994;4.448;2023-02-02T11:17:25;3.00;;;1.98;;
71290;SDS011;59073;51.994;4.448;2023-02-02T11:19:52;4.08;;;2.69;;
71290;SDS011;59073;51.994;4.448;2023-02-02T11:22:33;3.55;;;2.35;;
71290;SDS011;59073;51.994;4.448;2023-02-02T11:27:51;3.32;;;2.22;;
71290;SDS011;59073;51.994;4.448;2023-02-02T11:32:54;3.76;;;2.54;;
71290;SDS011;59073;51.994;4.448;2023-02-02T11:35:26;3.24;;;2.14;;
71290;SDS011;59073;51.994;4.448;2023-02-02T11:38:14;4.02;;;2.65;;
71290;SDS011;59073;51.994;4.448;2023-02-02T11:40:45;4.12;;;2.79;;
71290;SDS011;59073;51.994;4.448;2023-02-02T11:43:24;3.39;;;2.28;;
71290;SDS011;59073;51.994;4.448;2023-02-02T11:46:03;3.84;;;2.62;;
71290;SDS011;59073;51.994;4.448;2023-02-02T11:48:36;4.10;;;2.79;;
71290;SDS011;59073;51.994;4.448;2023-02-02T11:51:04;3.74;;;2.56;;
71290;SDS011;59073;51.994;4.448;2023-02-02T11:53:50;3.61;;;2.48;;
71290;SDS011;59073;51.994;4.448;2023-02-02T11:56:31;3.87;;;2.60;;
71290;SDS011;59073;51.994;4.448;2023-02-02T11:59:00;4.20;;;2.81;;
71290;SDS011;59073;51.994;4.448;2023-02-02T12:04:28;4.01;;;2.64;;
71290;SDS011;59073;51.994;4.448;2023-02-02T12:06:48;3.96;;;2.60;;
71290;SDS011;59073;51.994;4.448;2023-02-02T12:09:23;4.60;;;2.94;;
71290;SDS011;59073;51.994;4.448;2023-02-02T12:31:26;4.02;;;2.63;;
71290;SDS011;59073;51.994;4.448;2023-02-02T12:34:14;3.43;;;2.29;;
71290;SDS011;59073;51.994;4.448;2023-02-02T12:37:03;3.75;;;2.52;;
71290;SDS011;59073;51.994;4.448;2023-02-02T12:40:02;3.76;;;2.52;;
71290;SDS011;59073;51.994;4.448;2023-02-02T12:43:17;3.60;;;2.42;;
71290;SDS011;59073;51.994;4.448;2023-02-02T12:58:29;3.92;;;2.76;;
71290;SDS011;59073;51.994;4.448;2023-02-02T13:03:26;2.80;;;2.09;;
71290;SDS011;59073;51.994;4.448;2023-02-02T13:06:03;3.11;;;2.31;;
71290;SDS011;59073;51.994;4.448;2023-02-02T13:11:47;2.64;;;1.95;;
71290;SDS011;59073;51.994;4.448;2023-02-02T13:14:26;2.42;;;1.82;;
71290;SDS011;59073;51.994;4.448;2023-02-02T13:16:59;2.22;;;1.72;;
71290;SDS011;59073;51.994;4.448;2023-02-02T13:19:47;2.11;;;1.63;;
71290;SDS011;59073;51.994;4.448;2023-02-02T13:22:19;2.28;;;1.84;;
71290;SDS011;59073;51.994;4.448;2023-02-02T13:24:52;1.89;;;1.54;;
71290;SDS011;59073;51.994;4.448;2023-02-02T13:27:23;2.03;;;1.66;;
71290;SDS011;59073;51.994;4.448;2023-02-02T13:32:36;2.07;;;1.70;;
71290;SDS011;59073;51.994;4.448;2023-02-02T13:35:15;2.25;;;1.84;;
71290;SDS011;59073;51.994;4.448;2023-02-02T13:40:28;2.32;;;1.94;;
71290;SDS011;59073;51.994;4.448;2023-02-02T13:48:51;2.17;;;1.88;;
71290;SDS011;59073;51.994;4.448;2023-02-02T13:57:12;1.89;;;1.61;;
71290;SDS011;59073;51.994;4.448;2023-02-02T13:59:58;2.49;;;2.09;;
71290;SDS011;59073;51.994;4.448;2023-02-02T14:02:46;2.70;;;2.26;;
71290;SDS011;59073;51.994;4.448;2023-02-02T14:05:26;2.47;;;2.05;;
71290;SDS011;59073;51.994;4.448;2023-02-02T14:08:03;2.54;;;2.16;;
71290;SDS011;59073;51.994;4.448;2023-02-02T14:10:41;2.62;;;2.19;;
71290;SDS011;59073;51.994;4.448;2023-02-02T14:13:21;2.48;;;2.09;;
71290;SDS011;59073;51.994;4.448;2023-02-02T14:16:18;2.88;;;2.38;;
71290;SDS011;59073;51.994;4.448;2023-02-02T14:19:05;2.97;;;2.39;;
71290;SDS011;59073;51.994;4.448;2023-02-02T14:26:52;2.83;;;2.29;;
71290;SDS011;59073;51.994;4.448;2023-02-02T14:31:56;3.00;;;2.47;;
71290;SDS011;59073;51.994;4.448;2023-02-02T14:45:36;3.32;;;2.61;;
71290;SDS011;59073;51.994;4.448;2023-02-02T14:48:16;3.80;;;2.99;;
71290;SDS011;59073;51.994;4.448;2023-02-02T14:50:50;3.63;;;2.84;;
71290;SDS011;59073;51.994;4.448;2023-02-02T14:58:35;3.00;;;2.41;;
71290;SDS011;59073;51.994;4.448;2023-02-02T15:01:10;3.01;;;2.37;;
71290;SDS011;59073;51.994;4.448;2023-02-02T15:06:38;3.50;;;2.59;;
71290;SDS011;59073;51.994;4.448;2023-02-02T15:20:17;3.17;;;2.46;;
71290;SDS011;59073;51.994;4.448;2023-02-02T15:23:05;3.51;;;2.66;;
71290;SDS011;59073;51.994;4.448;2023-02-02T15:26:03;3.43;;;2.65;;
71290;SDS011;59073;51.994;4.448;2023-02-02T15:33:44;3.44;;;2.72;;
71290;SDS011;59073;51.994;4.448;2023-02-02T15:38:49;3.19;;;2.47;;
71290;SDS011;59073;51.994;4.448;2023-02-02T15:41:23;2.94;;;2.28;;
71290;SDS011;59073;51.994;4.448;2023-02-02T15:43:57;3.67;;;2.79;;
71290;SDS011;59073;51.994;4.448;2023-02-02T15:46:24;3.62;;;2.79;;
71290;SDS011;59073;51.994;4.448;2023-02-02T15:51:46;2.81;;;2.25;;
71290;SDS011;59073;51.994;4.448;2023-02-02T15:54:22;3.50;;;2.73;;
71290;SDS011;59073;51.994;4.448;2023-02-02T15:56:50;3.70;;;2.81;;
71290;SDS011;59073;51.994;4.448;2023-02-02T15:59:18;3.27;;;2.53;;
71290;SDS011;59073;51.994;4.448;2023-02-02T16:01:46;3.17;;;2.47;;
71290;SDS011;59073;51.994;4.448;2023-02-02T16:04:25;3.78;;;2.86;;
71290;SDS011;59073;51.994;4.448;2023-02-02T16:07:02;3.49;;;2.67;;
71290;SDS011;59073;51.994;4.448;2023-02-02T16:09:33;3.12;;;2.43;;
71290;SDS011;59073;51.994;4.448;2023-02-02T16:12:01;3.40;;;2.70;;
71290;SDS011;59073;51.994;4.448;2023-02-02T16:14:30;3.32;;;2.61;;
71290;SDS011;59073;51.994;4.448;2023-02-02T16:17:12;3.02;;;2.37;;
71290;SDS011;59073;51.994;4.448;2023-02-02T16:19:45;3.48;;;2.69;;
71290;SDS011;59073;51.994;4.448;2023-02-02T16:22:15;3.34;;;2.62;;
71290;SDS011;59073;51.994;4.448;2023-02-02T16:24:52;3.25;;;2.59;;
71290;SDS011;59073;51.994;4.448;2023-02-02T16:27:21;3.11;;;2.47;;
71290;SDS011;59073;51.994;4.448;2023-02-02T16:29:50;2.80;;;2.25;;
71290;SDS011;59073;51.994;4.448;2023-02-02T16:32:28;3.17;;;2.62;;
71290;SDS011;59073;51.994;4.448;2023-02-02T16:34:56;3.08;;;2.54;;
71290;SDS011;59073;51.994;4.448;2023-02-02T16:37:24;2.70;;;2.23;;
71290;SDS011;59073;51.994;4.448;2023-02-02T16:39:56;3.29;;;2.68;;
71290;SDS011;59073;51.994;4.448;2023-02-02T16:42:39;3.11;;;2.62;;
71290;SDS011;59073;51.994;4.448;2023-02-02T16:45:05;4.72;;;4.32;;
71290;SDS011;59073;51.994;4.448;2023-02-02T16:47:32;2.93;;;2.83;;
71290;SDS011;59073;51.994;4.448;2023-02-02T16:52:31;3.07;;;2.96;;
71290;SDS011;59073;51.994;4.448;2023-02-02T16:55:17;2.78;;;2.63;;
71290;SDS011;59073;51.994;4.448;2023-02-02T16:57:44;2.80;;;2.61;;
71290;SDS011;59073;51.994;4.448;2023-02-02T17:00:20;2.74;;;2.57;;
71290;SDS011;59073;51.994;4.448;2023-02-02T17:02:49;2.77;;;2.57;;
71290;SDS011;59073;51.994;4.448;2023-02-02T17:05:32;3.38;;;3.03;;
71290;SDS011;59073;51.994;4.448;2023-02-02T17:08:11;3.31;;;2.99;;
71290;SDS011;59073;51.994;4.448;2023-02-02T17:10:37;2.94;;;2.64;;
71290;SDS011;59073;51.994;4.448;2023-02-02T17:15:57;2.28;;;2.08;;
71290;SDS011;59073;51.994;4.448;2023-02-02T17:18:23;2.44;;;2.18;;
71290;SDS011;59073;51.994;4.448;2023-02-02T17:20:50;3.56;;;3.19;;
71290;SDS011;59073;51.994;4.448;2023-02-02T17:23:27;7.17;;;6.79;;
71290;SDS011;59073;51.994;4.448;2023-02-02T17:25:55;4.90;;;4.76;;
71290;SDS011;59073;51.994;4.448;2023-02-02T17:28:22;6.99;;;6.89;;
71290;SDS011;59073;51.994;4.448;2023-02-02T17:30:57;3.53;;;3.47;;
71290;SDS011;59073;51.994;4.448;2023-02-02T17:33:28;2.41;;;2.34;;
71290;SDS011;59073;51.994;4.448;2023-02-02T17:35:58;2.59;;;2.50;;
71290;SDS011;59073;51.994;4.448;2023-02-02T17:38:23;2.77;;;2.59;;
71290;SDS011;59073;51.994;4.448;2023-02-02T17:40:51;3.21;;;2.88;;
71290;SDS011;59073;51.994;4.448;2023-02-02T17:43:18;2.93;;;2.68;;
71290;SDS011;59073;51.994;4.448;2023-02-02T17:45:44;3.13;;;2.92;;